sensor_id;sensor_type;location;lat;lon;timestamp;P1;durP1;ratioP1;P2;durP2;ratioP2
6207;SDS011;3137;51.550;7.060;2023-02-28T00:01:11;10.80;;;9.67;;
6207;SDS011;3137;51.550;7.060;2023-02-28T00:03:38;14.57;;;9.27;;
6207;SDS011;3137;51.550;7.060;2023-02-28T00:06:06;11.63;;;10.03;;
6207;SDS011;3137;51.550;7.060;2023-02-28T00:08:33;9.73;;;8.83;;
6207;SDS011;3137;51.550;7.060;2023-02-28T00:11:03;10.83;;;9.63;;
6207;SDS011;3137;51.550;7.060;2023-02-28T00:13:33;11.07;;;9.87;;
6207;SDS011;3137;51.550;7.060;2023-02-28T00:16:03;15.23;;;9.43;;
6207;SDS011;3137;51.550;7.060;2023-02-28T00:18:32;10.00;;;9.10;;
6207;SDS011;3137;51.550;7.060;2023-02-28T00:20:59;10.30;;;9.30;;
6207;SDS011;3137;51.550;7.060;2023-02-28T00:23:26;10.87;;;9.87;;
6207;SDS011;3137;51.550;7.060;2023-02-28T00:25:52;11.27;;;9.57;;
6207;SDS011;3137;51.550;7.060;2023-02-28T00:28:20;15.00;;;9.57;;
6207;SDS011;3137;51.550;7.060;2023-02-28T00:30:46;9.80;;;9.00;;
6207;SDS011;3137;51.550;7.060;2023-02-28T00:33:13;13.63;;;10.03;;
6207;SDS011;3137;51.550;7.060;2023-02-28T00:35:40;9.83;;;9.07;;
6207;SDS011;3137;51.550;7.060;2023-02-28T00:38:08;10.43;;;9.33;;
6207;SDS011;3137;51.550;7.060;2023-02-28T00:40:34;9.40;;;8.50;;
6207;SDS011;3137;51.550;7.060;2023-02-28T00:43:01;9.13;;;8.53;;
6207;SDS011;3137;51.550;7.060;2023-02-28T00:45:27;8.80;;;8.10;;
6207;SDS011;3137;51.550;7.060;2023-02-28T00:47:53;9.27;;;8.67;;
6207;SDS011;3137;51.550;7.060;2023-02-28T00:50:20;10.00;;;8.97;;
6207;SDS011;3137;51.550;7.060;2023-02-28T00:52:47;8.93;;;8.20;;
6207;SDS011;3137;51.550;7.060;2023-02-28T00:55:14;8.90;;;8.30;;
6207;SDS011;3137;51.550;7.060;2023-02-28T00:57:41;9.33;;;8.63;;
6207;SDS011;3137;51.550;7.060;2023-02-28T01:00:08;8.23;;;7.57;;
6207;SDS011;3137;51.550;7.060;2023-02-28T01:02:35;8.47;;;7.80;;
6207;SDS011;3137;51.550;7.060;2023-02-28T01:05:01;8.40;;;8.00;;
6207;SDS011;3137;51.550;7.060;2023-02-28T01:07:29;9.17;;;8.40;;
6207;SDS011;3137;51.550;7.060;2023-02-28T01:09:55;9.90;;;7.80;;
6207;SDS011;3137;51.550;7.060;2023-02-28T01:12:23;9.00;;;8.30;;
6207;SDS011;3137;51.550;7.060;2023-02-28T01:14:50;8.43;;;7.90;;
6207;SDS011;3137;51.550;7.060;2023-02-28T01:17:16;8.23;;;7.70;;
6207;SDS011;3137;51.550;7.060;2023-02-28T01:19:42;8.20;;;7.50;;
6207;SDS011;3137;51.550;7.060;2023-02-28T01:22:09;8.53;;;7.93;;
6207;SDS011;3137;51.550;7.060;2023-02-28T01:24:35;8.43;;;7.77;;
6207;SDS011;3137;51.550;7.060;2023-02-28T01:27:03;7.43;;;6.97;;
6207;SDS011;3137;51.550;7.060;2023-02-28T01:29:30;8.40;;;7.73;;
6207;SDS011;3137;51.550;7.060;2023-02-28T01:31:56;7.37;;;7.07;;
6207;SDS011;3137;51.550;7.060;2023-02-28T01:34:23;8.27;;;6.90;;
6207;SDS011;3137;51.550;7.060;2023-02-28T01:36:50;7.00;;;6.70;;
6207;SDS011;3137;51.550;7.060;2023-02-28T01:39:17;7.60;;;7.17;;
6207;SDS011;3137;51.550;7.060;2023-02-28T01:41:44;7.50;;;7.10;;
6207;SDS011;3137;51.550;7.060;2023-02-28T01:47:14;6.93;;;6.57;;
6207;SDS011;3137;51.550;7.060;2023-02-28T01:49:41;7.80;;;7.50;;
6207;SDS011;3137;51.550;7.060;2023-02-28T01:52:08;7.50;;;7.00;;
6207;SDS011;3137;51.550;7.060;2023-02-28T01:54:45;7.10;;;6.10;;
6207;SDS011;3137;51.550;7.060;2023-02-28T01:57:17;6.70;;;6.40;;
6207;SDS011;3137;51.550;7.060;2023-02-28T01:59:57;6.30;;;6.00;;
6207;SDS011;3137;51.550;7.060;2023-02-28T02:02:27;6.30;;;6.00;;
6207;SDS011;3137;51.550;7.060;2023-02-28T02:05:04;7.27;;;6.50;;
6207;SDS011;3137;51.550;7.060;2023-02-28T02:07:37;6.60;;;6.20;;
6207;SDS011;3137;51.550;7.060;2023-02-28T02:10:09;6.40;;;6.20;;
6207;SDS011;3137;51.550;7.060;2023-02-28T02:15:42;6.70;;;6.27;;
6207;SDS011;3137;51.550;7.060;2023-02-28T02:21:41;7.20;;;6.90;;
6207;SDS011;3137;51.550;7.060;2023-02-28T02:26:49;7.37;;;6.87;;
6207;SDS011;3137;51.550;7.060;2023-02-28T02:37:59;6.73;;;6.33;;
6207;SDS011;3137;51.550;7.060;2023-02-28T02:40:30;17.63;;;6.70;;
6207;SDS011;3137;51.550;7.060;2023-02-28T02:43:11;8.63;;;6.87;;
6207;SDS011;3137;51.550;7.060;2023-02-28T02:45:44;7.23;;;6.80;;
6207;SDS011;3137;51.550;7.060;2023-02-28T02:48:16;7.70;;;7.07;;
6207;SDS011;3137;51.550;7.060;2023-02-28T02:50:47;7.00;;;6.03;;
6207;SDS011;3137;51.550;7.060;2023-02-28T02:53:17;7.00;;;6.70;;
6207;SDS011;3137;51.550;7.060;2023-02-28T02:55:48;7.07;;;6.60;;
6207;SDS011;3137;51.550;7.060;2023-02-28T02:58:22;6.37;;;6.07;;
6207;SDS011;3137;51.550;7.060;2023-02-28T03:00:56;6.73;;;6.53;;
6207;SDS011;3137;51.550;7.060;2023-02-28T03:03:26;7.27;;;6.73;;
6207;SDS011;3137;51.550;7.060;2023-02-28T03:05:58;6.70;;;6.40;;
6207;SDS011;3137;51.550;7.060;2023-02-28T03:08:27;7.90;;;7.30;;
6207;SDS011;3137;51.550;7.060;2023-02-28T03:10:56;6.60;;;6.20;;
6207;SDS011;3137;51.550;7.060;2023-02-28T03:19:11;7.10;;;6.60;;
6207;SDS011;3137;51.550;7.060;2023-02-28T03:21:43;6.97;;;6.23;;
6207;SDS011;3137;51.550;7.060;2023-02-28T03:24:18;6.23;;;5.97;;
6207;SDS011;3137;51.550;7.060;2023-02-28T03:26:55;6.17;;;5.87;;
6207;SDS011;3137;51.550;7.060;2023-02-28T03:29:34;10.20;;;6.00;;
6207;SDS011;3137;51.550;7.060;2023-02-28T03:37:32;6.63;;;6.23;;
6207;SDS011;3137;51.550;7.060;2023-02-28T03:40:04;6.30;;;6.10;;
6207;SDS011;3137;51.550;7.060;2023-02-28T03:42:37;6.37;;;6.00;;
6207;SDS011;3137;51.550;7.060;2023-02-28T03:45:08;6.80;;;6.33;;
6207;SDS011;3137;51.550;7.060;2023-02-28T03:47:40;6.17;;;5.97;;
6207;SDS011;3137;51.550;7.060;2023-02-28T03:50:14;6.23;;;5.93;;
6207;SDS011;3137;51.550;7.060;2023-02-28T03:52:45;6.87;;;6.57;;
6207;SDS011;3137;51.550;7.060;2023-02-28T03:55:16;6.30;;;6.07;;
6207;SDS011;3137;51.550;7.060;2023-02-28T03:57:56;6.60;;;6.20;;
6207;SDS011;3137;51.550;7.060;2023-02-28T04:00:30;6.80;;;6.43;;
6207;SDS011;3137;51.550;7.060;2023-02-28T04:03:00;6.00;;;5.60;;
6207;SDS011;3137;51.550;7.060;2023-02-28T04:05:27;4.97;;;4.67;;
6207;SDS011;3137;51.550;7.060;2023-02-28T04:08:03;5.60;;;5.40;;
6207;SDS011;3137;51.550;7.060;2023-02-28T04:10:30;6.20;;;6.00;;
6207;SDS011;3137;51.550;7.060;2023-02-28T04:12:57;6.20;;;5.87;;
6207;SDS011;3137;51.550;7.060;2023-02-28T04:15:23;6.30;;;6.13;;
6207;SDS011;3137;51.550;7.060;2023-02-28T04:17:51;5.90;;;5.63;;
6207;SDS011;3137;51.550;7.060;2023-02-28T04:20:17;5.60;;;5.50;;
6207;SDS011;3137;51.550;7.060;2023-02-28T04:22:43;6.20;;;6.00;;
6207;SDS011;3137;51.550;7.060;2023-02-28T04:25:10;6.27;;;5.77;;
6207;SDS011;3137;51.550;7.060;2023-02-28T04:27:36;6.50;;;6.17;;
6207;SDS011;3137;51.550;7.060;2023-02-28T04:30:03;6.20;;;5.80;;
6207;SDS011;3137;51.550;7.060;2023-02-28T04:32:29;5.97;;;5.87;;
6207;SDS011;3137;51.550;7.060;2023-02-28T04:34:56;5.90;;;5.60;;
6207;SDS011;3137;51.550;7.060;2023-02-28T04:37:22;5.93;;;5.63;;
6207;SDS011;3137;51.550;7.060;2023-02-28T04:39:53;6.17;;;5.87;;
6207;SDS011;3137;51.550;7.060;2023-02-28T04:42:20;6.10;;;5.80;;
6207;SDS011;3137;51.550;7.060;2023-02-28T04:44:47;6.33;;;6.00;;
6207;SDS011;3137;51.550;7.060;2023-02-28T04:47:13;6.33;;;6.03;;
6207;SDS011;3137;51.550;7.060;2023-02-28T04:49:39;7.33;;;6.13;;
6207;SDS011;3137;51.550;7.060;2023-02-28T04:52:07;6.30;;;5.50;;
6207;SDS011;3137;51.550;7.060;2023-02-28T04:54:33;6.10;;;5.90;;
6207;SDS011;3137;51.550;7.060;2023-02-28T04:57:00;5.50;;;5.20;;
6207;SDS011;3137;51.550;7.060;2023-02-28T04:59:27;6.47;;;6.07;;
6207;SDS011;3137;51.550;7.060;2023-02-28T05:01:53;5.60;;;5.30;;
6207;SDS011;3137;51.550;7.060;2023-02-28T05:04:20;8.63;;;6.10;;
6207;SDS011;3137;51.550;7.060;2023-02-28T05:06:46;6.53;;;5.50;;
6207;SDS011;3137;51.550;7.060;2023-02-28T05:09:13;6.20;;;6.00;;
6207;SDS011;3137;51.550;7.060;2023-02-28T05:11:39;6.17;;;5.97;;
6207;SDS011;3137;51.550;7.060;2023-02-28T05:14:09;5.93;;;5.43;;
6207;SDS011;3137;51.550;7.060;2023-02-28T05:16:37;5.80;;;5.60;;
6207;SDS011;3137;51.550;7.060;2023-02-28T05:19:04;5.40;;;5.27;;
6207;SDS011;3137;51.550;7.060;2023-02-28T05:21:31;5.13;;;5.00;;
6207;SDS011;3137;51.550;7.060;2023-02-28T05:24:01;5.37;;;5.23;;
6207;SDS011;3137;51.550;7.060;2023-02-28T05:26:42;5.23;;;5.13;;
6207;SDS011;3137;51.550;7.060;2023-02-28T05:29:09;4.60;;;4.50;;
6207;SDS011;3137;51.550;7.060;2023-02-28T05:31:36;5.40;;;5.10;;
6207;SDS011;3137;51.550;7.060;2023-02-28T05:34:02;5.30;;;5.00;;
6207;SDS011;3137;51.550;7.060;2023-02-28T05:36:30;5.33;;;5.23;;
6207;SDS011;3137;51.550;7.060;2023-02-28T05:38:56;5.83;;;5.37;;
6207;SDS011;3137;51.550;7.060;2023-02-28T05:41:23;5.87;;;5.40;;
6207;SDS011;3137;51.550;7.060;2023-02-28T05:43:49;20.60;;;5.83;;
6207;SDS011;3137;51.550;7.060;2023-02-28T05:46:16;8.37;;;5.17;;
6207;SDS011;3137;51.550;7.060;2023-02-28T05:48:43;5.80;;;5.50;;
6207;SDS011;3137;51.550;7.060;2023-02-28T05:51:12;13.67;;;5.33;;
6207;SDS011;3137;51.550;7.060;2023-02-28T05:53:39;6.13;;;5.63;;
6207;SDS011;3137;51.550;7.060;2023-02-28T05:56:05;5.43;;;5.23;;
6207;SDS011;3137;51.550;7.060;2023-02-28T05:58:32;8.17;;;5.87;;
6207;SDS011;3137;51.550;7.060;2023-02-28T06:00:58;5.80;;;5.57;;
6207;SDS011;3137;51.550;7.060;2023-02-28T06:03:26;5.77;;;5.37;;
6207;SDS011;3137;51.550;7.060;2023-02-28T06:05:53;6.00;;;5.70;;
6207;SDS011;3137;51.550;7.060;2023-02-28T06:08:19;7.40;;;5.80;;
6207;SDS011;3137;51.550;7.060;2023-02-28T06:10:46;6.30;;;6.03;;
6207;SDS011;3137;51.550;7.060;2023-02-28T06:13:12;6.73;;;6.27;;
6207;SDS011;3137;51.550;7.060;2023-02-28T06:15:39;6.43;;;5.73;;
6207;SDS011;3137;51.550;7.060;2023-02-28T06:18:05;6.37;;;6.07;;
6207;SDS011;3137;51.550;7.060;2023-02-28T06:20:32;7.10;;;6.50;;
6207;SDS011;3137;51.550;7.060;2023-02-28T06:22:59;10.03;;;6.77;;
6207;SDS011;3137;51.550;7.060;2023-02-28T06:25:26;8.03;;;7.10;;
6207;SDS011;3137;51.550;7.060;2023-02-28T06:27:53;7.53;;;6.80;;
6207;SDS011;3137;51.550;7.060;2023-02-28T06:30:21;7.33;;;6.97;;
6207;SDS011;3137;51.550;7.060;2023-02-28T06:32:51;7.50;;;7.03;;
6207;SDS011;3137;51.550;7.060;2023-02-28T06:35:18;13.40;;;7.37;;
6207;SDS011;3137;51.550;7.060;2023-02-28T06:37:44;7.67;;;6.90;;
6207;SDS011;3137;51.550;7.060;2023-02-28T06:40:11;7.07;;;6.57;;
6207;SDS011;3137;51.550;7.060;2023-02-28T06:42:39;7.63;;;7.27;;
6207;SDS011;3137;51.550;7.060;2023-02-28T06:45:05;8.70;;;7.97;;
6207;SDS011;3137;51.550;7.060;2023-02-28T06:47:35;9.93;;;8.13;;
6207;SDS011;3137;51.550;7.060;2023-02-28T06:50:03;8.43;;;7.63;;
6207;SDS011;3137;51.550;7.060;2023-02-28T06:52:30;8.73;;;7.90;;
6207;SDS011;3137;51.550;7.060;2023-02-28T06:54:57;12.23;;;7.20;;
6207;SDS011;3137;51.550;7.060;2023-02-28T06:57:27;7.67;;;7.03;;
6207;SDS011;3137;51.550;7.060;2023-02-28T06:59:58;12.17;;;7.73;;
6207;SDS011;3137;51.550;7.060;2023-02-28T07:02:26;8.90;;;8.20;;
6207;SDS011;3137;51.550;7.060;2023-02-28T07:04:52;7.60;;;6.90;;
6207;SDS011;3137;51.550;7.060;2023-02-28T07:07:19;9.00;;;8.13;;
6207;SDS011;3137;51.550;7.060;2023-02-28T07:09:46;8.43;;;7.77;;
6207;SDS011;3137;51.550;7.060;2023-02-28T07:12:12;8.93;;;8.33;;
6207;SDS011;3137;51.550;7.060;2023-02-28T07:14:38;9.07;;;8.37;;
6207;SDS011;3137;51.550;7.060;2023-02-28T07:17:06;8.03;;;7.57;;
6207;SDS011;3137;51.550;7.060;2023-02-28T07:19:34;8.07;;;7.37;;
6207;SDS011;3137;51.550;7.060;2023-02-28T07:22:00;8.07;;;7.47;;
6207;SDS011;3137;51.550;7.060;2023-02-28T07:24:28;9.93;;;7.50;;
6207;SDS011;3137;51.550;7.060;2023-02-28T07:26:55;7.77;;;7.20;;
6207;SDS011;3137;51.550;7.060;2023-02-28T07:29:22;8.33;;;7.67;;
6207;SDS011;3137;51.550;7.060;2023-02-28T07:31:48;8.03;;;7.57;;
6207;SDS011;3137;51.550;7.060;2023-02-28T07:34:16;8.70;;;7.93;;
6207;SDS011;3137;51.550;7.060;2023-02-28T07:36:43;8.20;;;7.73;;
6207;SDS011;3137;51.550;7.060;2023-02-28T07:39:09;8.17;;;7.27;;
6207;SDS011;3137;51.550;7.060;2023-02-28T07:41:36;8.87;;;7.97;;
6207;SDS011;3137;51.550;7.060;2023-02-28T07:44:12;8.90;;;8.20;;
6207;SDS011;3137;51.550;7.060;2023-02-28T07:46:38;8.90;;;8.20;;
6207;SDS011;3137;51.550;7.060;2023-02-28T07:49:05;8.93;;;8.13;;
6207;SDS011;3137;51.550;7.060;2023-02-28T07:51:32;8.97;;;8.17;;
6207;SDS011;3137;51.550;7.060;2023-02-28T07:53:58;11.20;;;9.90;;
6207;SDS011;3137;51.550;7.060;2023-02-28T07:56:24;8.73;;;8.00;;
6207;SDS011;3137;51.550;7.060;2023-02-28T07:58:51;9.20;;;8.50;;
6207;SDS011;3137;51.550;7.060;2023-02-28T08:01:17;11.93;;;8.70;;
6207;SDS011;3137;51.550;7.060;2023-02-28T08:03:45;8.60;;;7.90;;
6207;SDS011;3137;51.550;7.060;2023-02-28T08:06:16;9.00;;;8.43;;
6207;SDS011;3137;51.550;7.060;2023-02-28T08:08:44;8.03;;;7.43;;
6207;SDS011;3137;51.550;7.060;2023-02-28T08:11:11;13.33;;;9.00;;
6207;SDS011;3137;51.550;7.060;2023-02-28T08:13:37;8.93;;;8.13;;
6207;SDS011;3137;51.550;7.060;2023-02-28T08:16:04;8.33;;;7.73;;
6207;SDS011;3137;51.550;7.060;2023-02-28T08:18:31;8.43;;;7.63;;
6207;SDS011;3137;51.550;7.060;2023-02-28T08:20:58;9.17;;;8.23;;
6207;SDS011;3137;51.550;7.060;2023-02-28T08:23:25;8.13;;;7.63;;
6207;SDS011;3137;51.550;7.060;2023-02-28T08:25:55;8.47;;;7.77;;
6207;SDS011;3137;51.550;7.060;2023-02-28T08:28:22;9.23;;;8.33;;
6207;SDS011;3137;51.550;7.060;2023-02-28T08:30:52;12.23;;;8.07;;
6207;SDS011;3137;51.550;7.060;2023-02-28T08:33:19;8.33;;;7.67;;
6207;SDS011;3137;51.550;7.060;2023-02-28T08:35:46;8.10;;;7.60;;
6207;SDS011;3137;51.550;7.060;2023-02-28T08:38:12;8.43;;;7.77;;
6207;SDS011;3137;51.550;7.060;2023-02-28T08:40:38;8.10;;;7.53;;
6207;SDS011;3137;51.550;7.060;2023-02-28T08:43:05;8.30;;;7.80;;
6207;SDS011;3137;51.550;7.060;2023-02-28T08:45:31;7.57;;;7.20;;
6207;SDS011;3137;51.550;7.060;2023-02-28T08:47:58;7.60;;;7.00;;
6207;SDS011;3137;51.550;7.060;2023-02-28T08:50:24;8.37;;;7.73;;
6207;SDS011;3137;51.550;7.060;2023-02-28T08:52:51;8.33;;;7.83;;
6207;SDS011;3137;51.550;7.060;2023-02-28T08:55:17;7.87;;;7.37;;
6207;SDS011;3137;51.550;7.060;2023-02-28T08:57:43;8.73;;;7.97;;
6207;SDS011;3137;51.550;7.060;2023-02-28T09:00:10;8.50;;;7.83;;
6207;SDS011;3137;51.550;7.060;2023-02-28T09:02:40;7.40;;;7.10;;
6207;SDS011;3137;51.550;7.060;2023-02-28T09:05:06;8.87;;;8.10;;
6207;SDS011;3137;51.550;7.060;2023-02-28T09:07:34;7.73;;;7.40;;
6207;SDS011;3137;51.550;7.060;2023-02-28T09:10:00;7.80;;;7.40;;
6207;SDS011;3137;51.550;7.060;2023-02-28T09:12:27;7.47;;;6.77;;
6207;SDS011;3137;51.550;7.060;2023-02-28T09:14:58;7.23;;;6.57;;
6207;SDS011;3137;51.550;7.060;2023-02-28T09:17:24;7.47;;;6.87;;
6207;SDS011;3137;51.550;7.060;2023-02-28T09:19:56;7.27;;;6.17;;
6207;SDS011;3137;51.550;7.060;2023-02-28T09:22:23;6.47;;;6.30;;
6207;SDS011;3137;51.550;7.060;2023-02-28T09:24:49;5.83;;;5.70;;
6207;SDS011;3137;51.550;7.060;2023-02-28T09:27:16;5.97;;;5.73;;
6207;SDS011;3137;51.550;7.060;2023-02-28T09:29:42;6.47;;;6.10;;
6207;SDS011;3137;51.550;7.060;2023-02-28T09:32:08;5.63;;;5.53;;
6207;SDS011;3137;51.550;7.060;2023-02-28T09:34:35;5.60;;;5.40;;
6207;SDS011;3137;51.550;7.060;2023-02-28T09:37:03;6.70;;;6.30;;
6207;SDS011;3137;51.550;7.060;2023-02-28T09:39:29;5.13;;;5.00;;
6207;SDS011;3137;51.550;7.060;2023-02-28T09:41:56;4.70;;;4.60;;
6207;SDS011;3137;51.550;7.060;2023-02-28T09:44:30;5.00;;;4.80;;
6207;SDS011;3137;51.550;7.060;2023-02-28T09:47:02;6.10;;;5.67;;
6207;SDS011;3137;51.550;7.060;2023-02-28T09:49:40;5.53;;;5.20;;
6207;SDS011;3137;51.550;7.060;2023-02-28T09:52:13;5.53;;;5.17;;
6207;SDS011;3137;51.550;7.060;2023-02-28T09:57:42;5.87;;;5.47;;
6207;SDS011;3137;51.550;7.060;2023-02-28T10:03:22;5.47;;;5.13;;
6207;SDS011;3137;51.550;7.060;2023-02-28T10:06:07;5.50;;;5.30;;
6207;SDS011;3137;51.550;7.060;2023-02-28T10:08:40;13.93;;;5.50;;
6207;SDS011;3137;51.550;7.060;2023-02-28T10:11:16;5.50;;;5.30;;
6207;SDS011;3137;51.550;7.060;2023-02-28T10:13:51;10.23;;;5.30;;
6207;SDS011;3137;51.550;7.060;2023-02-28T10:19:19;5.53;;;4.87;;
6207;SDS011;3137;51.550;7.060;2023-02-28T10:21:55;6.20;;;5.70;;
6207;SDS011;3137;51.550;7.060;2023-02-28T10:27:13;5.57;;;5.47;;
6207;SDS011;3137;51.550;7.060;2023-02-28T10:29:51;5.43;;;5.33;;
6207;SDS011;3137;51.550;7.060;2023-02-28T10:32:19;5.57;;;5.40;;
6207;SDS011;3137;51.550;7.060;2023-02-28T10:34:51;6.00;;;5.90;;
6207;SDS011;3137;51.550;7.060;2023-02-28T10:37:21;5.33;;;5.07;;
6207;SDS011;3137;51.550;7.060;2023-02-28T10:39:47;5.60;;;5.40;;
6207;SDS011;3137;51.550;7.060;2023-02-28T10:47:38;5.73;;;5.20;;
6207;SDS011;3137;51.550;7.060;2023-02-28T10:52:55;4.63;;;4.63;;
6207;SDS011;3137;51.550;7.060;2023-02-28T10:55:34;13.83;;;4.20;;
6207;SDS011;3137;51.550;7.060;2023-02-28T10:58:01;4.60;;;4.30;;
6207;SDS011;3137;51.550;7.060;2023-02-28T11:00:31;5.07;;;4.97;;
6207;SDS011;3137;51.550;7.060;2023-02-28T11:03:00;4.63;;;4.43;;
6207;SDS011;3137;51.550;7.060;2023-02-28T11:10:31;7.97;;;5.10;;
6207;SDS011;3137;51.550;7.060;2023-02-28T11:13:01;12.13;;;4.70;;
6207;SDS011;3137;51.550;7.060;2023-02-28T11:15:29;4.73;;;4.03;;
6207;SDS011;3137;51.550;7.060;2023-02-28T11:20:50;4.60;;;4.50;;
6207;SDS011;3137;51.550;7.060;2023-02-28T11:23:19;4.77;;;4.67;;
6207;SDS011;3137;51.550;7.060;2023-02-28T11:25:47;5.13;;;4.77;;
6207;SDS011;3137;51.550;7.060;2023-02-28T11:28:24;5.07;;;4.70;;
6207;SDS011;3137;51.550;7.060;2023-02-28T11:36:13;4.87;;;4.50;;
6207;SDS011;3137;51.550;7.060;2023-02-28T11:38:46;4.30;;;4.30;;
6207;SDS011;3137;51.550;7.060;2023-02-28T11:41:21;4.93;;;4.60;;
6207;SDS011;3137;51.550;7.060;2023-02-28T11:44:02;7.97;;;5.30;;
6207;SDS011;3137;51.550;7.060;2023-02-28T11:49:27;4.47;;;4.37;;
6207;SDS011;3137;51.550;7.060;2023-02-28T11:52:14;5.63;;;5.20;;
6207;SDS011;3137;51.550;7.060;2023-02-28T11:57:39;5.57;;;5.13;;
6207;SDS011;3137;51.550;7.060;2023-02-28T12:05:45;5.83;;;5.37;;
6207;SDS011;3137;51.550;7.060;2023-02-28T12:08:20;5.00;;;4.70;;
6207;SDS011;3137;51.550;7.060;2023-02-28T12:16:52;5.43;;;5.33;;
6207;SDS011;3137;51.550;7.060;2023-02-28T12:27:33;6.93;;;6.53;;
6207;SDS011;3137;51.550;7.060;2023-02-28T12:30:16;6.13;;;5.90;;
6207;SDS011;3137;51.550;7.060;2023-02-28T12:32:49;6.17;;;6.07;;
6207;SDS011;3137;51.550;7.060;2023-02-28T12:35:23;5.60;;;5.50;;
6207;SDS011;3137;51.550;7.060;2023-02-28T12:38:12;6.60;;;5.93;;
6207;SDS011;3137;51.550;7.060;2023-02-28T12:41:01;6.20;;;5.93;;
6207;SDS011;3137;51.550;7.060;2023-02-28T12:43:34;7.17;;;6.77;;
6207;SDS011;3137;51.550;7.060;2023-02-28T12:46:08;7.20;;;6.90;;
6207;SDS011;3137;51.550;7.060;2023-02-28T12:48:40;8.00;;;7.40;;
6207;SDS011;3137;51.550;7.060;2023-02-28T12:51:10;8.00;;;7.30;;
6207;SDS011;3137;51.550;7.060;2023-02-28T12:58:50;8.53;;;8.17;;
6207;SDS011;3137;51.550;7.060;2023-02-28T13:04:03;8.17;;;7.53;;
6207;SDS011;3137;51.550;7.060;2023-02-28T13:09:57;7.80;;;7.50;;
6207;SDS011;3137;51.550;7.060;2023-02-28T13:12:26;7.40;;;7.30;;
6207;SDS011;3137;51.550;7.060;2023-02-28T13:15:04;7.60;;;7.30;;
6207;SDS011;3137;51.550;7.060;2023-02-28T13:17:38;7.70;;;6.97;;
6207;SDS011;3137;51.550;7.060;2023-02-28T13:20:20;7.47;;;7.17;;
6207;SDS011;3137;51.550;7.060;2023-02-28T13:22:50;7.77;;;7.43;;
6207;SDS011;3137;51.550;7.060;2023-02-28T13:27:57;6.23;;;5.70;;
6207;SDS011;3137;51.550;7.060;2023-02-28T13:36:27;7.33;;;7.13;;
6207;SDS011;3137;51.550;7.060;2023-02-28T13:46:29;6.60;;;6.40;;
6207;SDS011;3137;51.550;7.060;2023-02-28T13:48:56;9.33;;;7.00;;
6207;SDS011;3137;51.550;7.060;2023-02-28T13:51:49;8.07;;;7.60;;
6207;SDS011;3137;51.550;7.060;2023-02-28T14:05:44;7.77;;;6.80;;
6207;SDS011;3137;51.550;7.060;2023-02-28T14:10:44;8.77;;;8.37;;
6207;SDS011;3137;51.550;7.060;2023-02-28T14:15:55;8.73;;;8.30;;
6207;SDS011;3137;51.550;7.060;2023-02-28T14:18:27;7.23;;;7.03;;
6207;SDS011;3137;51.550;7.060;2023-02-28T14:20:57;8.07;;;7.43;;
6207;SDS011;3137;51.550;7.060;2023-02-28T14:26:16;7.50;;;7.20;;
6207;SDS011;3137;51.550;7.060;2023-02-28T14:31:58;7.63;;;7.30;;
6207;SDS011;3137;51.550;7.060;2023-02-28T14:34:35;9.07;;;8.50;;
6207;SDS011;3137;51.550;7.060;2023-02-28T14:37:10;9.10;;;8.63;;
6207;SDS011;3137;51.550;7.060;2023-02-28T14:39:43;8.47;;;8.17;;
6207;SDS011;3137;51.550;7.060;2023-02-28T14:42:25;7.83;;;7.53;;
6207;SDS011;3137;51.550;7.060;2023-02-28T14:44:54;7.93;;;7.60;;
6207;SDS011;3137;51.550;7.060;2023-02-28T14:47:22;9.63;;;7.93;;
6207;SDS011;3137;51.550;7.060;2023-02-28T14:49:51;8.40;;;7.90;;
6207;SDS011;3137;51.550;7.060;2023-02-28T14:52:24;8.30;;;7.67;;
6207;SDS011;3137;51.550;7.060;2023-02-28T14:54:56;8.70;;;8.30;;
6207;SDS011;3137;51.550;7.060;2023-02-28T14:57:29;8.67;;;8.03;;
6207;SDS011;3137;51.550;7.060;2023-02-28T15:00:09;9.00;;;8.60;;
6207;SDS011;3137;51.550;7.060;2023-02-28T15:02:37;9.00;;;8.37;;
6207;SDS011;3137;51.550;7.060;2023-02-28T15:05:21;9.37;;;8.57;;
6207;SDS011;3137;51.550;7.060;2023-02-28T15:08:13;10.07;;;9.23;;
6207;SDS011;3137;51.550;7.060;2023-02-28T15:10:45;7.10;;;6.80;;
6207;SDS011;3137;51.550;7.060;2023-02-28T15:13:19;7.10;;;6.87;;
6207;SDS011;3137;51.550;7.060;2023-02-28T15:15:50;12.37;;;7.07;;
6207;SDS011;3137;51.550;7.060;2023-02-28T15:18:42;7.23;;;7.03;;
6207;SDS011;3137;51.550;7.060;2023-02-28T15:21:17;7.77;;;7.53;;
6207;SDS011;3137;51.550;7.060;2023-02-28T15:23:48;7.30;;;7.03;;
6207;SDS011;3137;51.550;7.060;2023-02-28T15:26:21;6.40;;;6.30;;
6207;SDS011;3137;51.550;7.060;2023-02-28T15:28:52;7.53;;;7.23;;
6207;SDS011;3137;51.550;7.060;2023-02-28T15:31:28;6.70;;;6.50;;
6207;SDS011;3137;51.550;7.060;2023-02-28T15:34:13;8.23;;;7.50;;
6207;SDS011;3137;51.550;7.060;2023-02-28T15:37:27;8.03;;;7.73;;
6207;SDS011;3137;51.550;7.060;2023-02-28T15:39:54;8.47;;;8.03;;
6207;SDS011;3137;51.550;7.060;2023-02-28T15:42:23;8.00;;;7.47;;
6207;SDS011;3137;51.550;7.060;2023-02-28T15:44:55;8.60;;;8.30;;
6207;SDS011;3137;51.550;7.060;2023-02-28T15:47:24;9.47;;;8.37;;
6207;SDS011;3137;51.550;7.060;2023-02-28T15:49:53;7.63;;;7.33;;
6207;SDS011;3137;51.550;7.060;2023-02-28T15:52:31;9.63;;;8.60;;
6207;SDS011;3137;51.550;7.060;2023-02-28T15:54:59;7.43;;;7.23;;
6207;SDS011;3137;51.550;7.060;2023-02-28T15:57:55;7.63;;;7.27;;
6207;SDS011;3137;51.550;7.060;2023-02-28T16:00:26;7.77;;;7.03;;
6207;SDS011;3137;51.550;7.060;2023-02-28T16:02:54;7.27;;;6.97;;
6207;SDS011;3137;51.550;7.060;2023-02-28T16:05:25;6.80;;;6.70;;
6207;SDS011;3137;51.550;7.060;2023-02-28T16:07:58;7.07;;;6.77;;
6207;SDS011;3137;51.550;7.060;2023-02-28T16:10:39;6.90;;;6.50;;
6207;SDS011;3137;51.550;7.060;2023-02-28T16:13:06;7.10;;;6.80;;
6207;SDS011;3137;51.550;7.060;2023-02-28T16:15:35;7.30;;;6.80;;
6207;SDS011;3137;51.550;7.060;2023-02-28T16:18:08;7.30;;;7.07;;
6207;SDS011;3137;51.550;7.060;2023-02-28T16:20:37;7.53;;;7.13;;
6207;SDS011;3137;51.550;7.060;2023-02-28T16:23:04;8.60;;;7.90;;
6207;SDS011;3137;51.550;7.060;2023-02-28T16:25:35;6.67;;;6.47;;
6207;SDS011;3137;51.550;7.060;2023-02-28T16:28:03;7.77;;;6.87;;
6207;SDS011;3137;51.550;7.060;2023-02-28T16:30:32;6.30;;;5.93;;
6207;SDS011;3137;51.550;7.060;2023-02-28T16:32:59;7.23;;;6.53;;
6207;SDS011;3137;51.550;7.060;2023-02-28T16:35:25;6.13;;;5.97;;
6207;SDS011;3137;51.550;7.060;2023-02-28T16:37:52;7.77;;;7.23;;
6207;SDS011;3137;51.550;7.060;2023-02-28T16:40:20;7.00;;;6.80;;
6207;SDS011;3137;51.550;7.060;2023-02-28T16:42:49;6.63;;;6.33;;
6207;SDS011;3137;51.550;7.060;2023-02-28T16:45:22;6.93;;;6.47;;
6207;SDS011;3137;51.550;7.060;2023-02-28T16:47:50;7.37;;;6.90;;
6207;SDS011;3137;51.550;7.060;2023-02-28T16:50:21;7.07;;;6.60;;
6207;SDS011;3137;51.550;7.060;2023-02-28T16:52:50;7.03;;;6.70;;
6207;SDS011;3137;51.550;7.060;2023-02-28T16:55:18;8.50;;;7.27;;
6207;SDS011;3137;51.550;7.060;2023-02-28T16:57:46;8.63;;;8.27;;
6207;SDS011;3137;51.550;7.060;2023-02-28T17:00:17;7.17;;;6.77;;
6207;SDS011;3137;51.550;7.060;2023-02-28T17:02:44;8.07;;;7.37;;
6207;SDS011;3137;51.550;7.060;2023-02-28T17:05:11;7.83;;;7.43;;
6207;SDS011;3137;51.550;7.060;2023-02-28T17:07:39;7.83;;;7.40;;
6207;SDS011;3137;51.550;7.060;2023-02-28T17:10:11;8.60;;;7.97;;
6207;SDS011;3137;51.550;7.060;2023-02-28T17:12:40;7.50;;;7.07;;
6207;SDS011;3137;51.550;7.060;2023-02-28T17:15:07;7.07;;;6.67;;
6207;SDS011;3137;51.550;7.060;2023-02-28T17:17:35;7.93;;;7.43;;
6207;SDS011;3137;51.550;7.060;2023-02-28T17:20:02;7.20;;;6.90;;
6207;SDS011;3137;51.550;7.060;2023-02-28T17:22:29;7.07;;;6.77;;
6207;SDS011;3137;51.550;7.060;2023-02-28T17:24:55;6.90;;;6.60;;
6207;SDS011;3137;51.550;7.060;2023-02-28T17:27:21;10.20;;;7.27;;
6207;SDS011;3137;51.550;7.060;2023-02-28T17:29:48;8.57;;;7.17;;
6207;SDS011;3137;51.550;7.060;2023-02-28T17:32:14;15.37;;;8.00;;
6207;SDS011;3137;51.550;7.060;2023-02-28T17:34:43;8.23;;;6.63;;
6207;SDS011;3137;51.550;7.060;2023-02-28T17:37:11;7.40;;;7.10;;
6207;SDS011;3137;51.550;7.060;2023-02-28T17:39:38;7.73;;;7.23;;
6207;SDS011;3137;51.550;7.060;2023-02-28T17:42:04;8.77;;;8.10;;
6207;SDS011;3137;51.550;7.060;2023-02-28T17:44:30;8.50;;;7.90;;
6207;SDS011;3137;51.550;7.060;2023-02-28T17:46:57;7.50;;;7.13;;
6207;SDS011;3137;51.550;7.060;2023-02-28T17:49:24;8.23;;;7.83;;
6207;SDS011;3137;51.550;7.060;2023-02-28T17:51:51;8.43;;;7.77;;